Columbus, NE

2:19 PM CDT on July 05, 2015 (GMT -0500)
Local Weather Plus | | Change Station
CLOSE
Current Station
Personal Weather Station
Location: Columbus, NE
Elevation: 1457 ft
Nearby Weather Stations

Elev 1457 ft 41.45 °N, 97.39 °W | Updated 25 seconds ago

Clear
Clear
85.4 °F
Feels Like 94 °F
N
21.9
Wind Variable Wind from SSE
Gusts 21.9 mph

Today
High -- | Low -- °F
--% Chance of Precip.
Yesterday
High -- | Low -- °F
Precip. -- in
6:01 AM 9:06 PM
Waning Gibbous, 82% visible
Pressure 29.84 in
Visibility 10.0 miles
Clouds Clear
Heat Index 94 °F
Dew Point 75 °F
Humidity 71%
Rainfall 0.00 in
Snow Depth Not available.
UV 10.9 out of 12
Pollen 5.40 out of 12
Air Quality Not available.
Flu Activity Not available.
METAR KOLU 051915Z AUTO 18013G18KT 10SM CLR 28/22 A2984 RMK AO1

More Conditions Fewer Conditions

Pressure 29.84 in
Visibility 10.0 miles
Clouds Clear
Heat Index 94 °F
Dew Point 75 °F
Humidity 71%
Rainfall 0.00 in
Snow Depth Not available.
UV 10.9 out of 12
Pollen 5.40 out of 12
Air Quality Not available.
Flu Activity Not available.
METAR KOLU 051915Z AUTO 18013G18KT 10SM CLR 28/22 A2984 RMK AO1

More Conditions Fewer Conditions

10-Day Weather Forecast

×

Almanac

Astronomy

Jul. 05, 2015 Rise Set
Actual Time
Civil Twilight
Nautical Twilight
Astronomical Twilight
Moon
Length of Visible Light
Length of Day
Tomorrow will be .
, % of the Moon is Illuminated

Today's Extremes

State Highs State Lows

Community

WunderPhotos

Upload Photos

1,835,351 photos uploaded!

WunderBlogs® & News

Nearby

Air Quality

  Air Quality AQ Index Pollutant
Not available.

Snow Depth

Station Depth Elevation

Earthquake Activity

City Distance Mag. Time & Date
Minimum magnitude displayed is 2.5.

Coastal Water Temperatures

Place Temperature

Stations

Nearby Weather Stations

Station Location Temp. Windchill Dew Point Humidity Wind Precip. Elev Updated Type